Snow/Ice From: 16-12-2017 16:00 Until: 17-12-2017 16:00 warning for: Snow/Ice Level: Yellow info button

Although rather usual in this region, locally or potentially dangerous phenomena are expected. (such as local winds, summer thunderstorms, rising streams or high waves) Be aware and pay attention to the latest weather updates, especially if you carry out activities exposed to weather or close to a stream or shoreline. 


Meteo18 Weather Cam more information Meteo18 Weather Cam


Thunder radar more information blitzortung!


warning for Snow/Ice more information rain snow radar


Visit our other weather sites:

Template documentation
and downloads

And another site



Weather Underground History page Text

Daily Summary for June 29, 2017 Units:  Metric    English   Both
« Previous Day
Next Day »
Daily Weekly Monthly Yearly Custom
  High: Low: Average:
Temperature: 20.1 °C 13.4 °C 15.6 °C
Dew Point: 14.5 °C 10.9 °C 12.6 °C
Humidity: 95 % 57 % 83 %
Wind Speed: 30.6 km/h 0.0 km/h 9.2 km/h
Wind Gust: 45.1 km/h - -
Wind:- - SW
Pressure: 1006.0 hPa 999.5 hPa -
Precipitation: 6.1 mm    
Historical Graphs
 
 
Tabular Data for June 29, 2017
Time Temperature Dew Point Pressure Wind Wind Speed Wind Gust Humidity Rainfall Rate (Hourly)
00:02 15.2 °C 12.9 °C 1000.9 hPa SW 4.8 km/h 6.4 km/h 86 % 0.0 mm
00:12 15.0 °C 12.9 °C 1000.9 hPa SSW 4.8 km/h 6.4 km/h 87 % 0.0 mm
00:17 14.9 °C 12.8 °C 1000.9 hPa SSW 4.8 km/h 6.4 km/h 87 % 0.0 mm
00:22 14.9 °C 12.8 °C 1000.9 hPa SSW 4.8 km/h 6.4 km/h 87 % 0.0 mm
00:27 14.9 °C 12.8 °C 1000.9 hPa SW 6.4 km/h 8.0 km/h 87 % 0.0 mm
00:32 15.0 °C 12.9 °C 1000.9 hPa SSW 4.8 km/h 8.0 km/h 87 % 0.0 mm
00:42 15.1 °C 13.1 °C 1000.6 hPa SW 11.3 km/h 11.3 km/h 88 % 0.0 mm
00:52 15.5 °C 13.3 °C 1000.6 hPa SSW 4.8 km/h 14.5 km/h 87 % 0.0 mm
01:02 15.8 °C 13.3 °C 1000.6 hPa SW 9.7 km/h 14.5 km/h 85 % 0.0 mm
01:07 15.7 °C 13.2 °C 1000.6 hPa SSW 4.8 km/h 14.5 km/h 85 % 0.0 mm
01:12 15.5 °C 13.2 °C 1000.6 hPa SW 8.0 km/h 14.5 km/h 86 % 0.0 mm
01:17 15.3 °C 13.1 °C 1000.6 hPa SW 6.4 km/h 12.9 km/h 87 % 0.0 mm
01:22 15.2 °C 13.0 °C 1000.6 hPa WSW 8.0 km/h 9.7 km/h 87 % 0.0 mm
01:32 15.5 °C 13.2 °C 1000.6 hPa SW 11.3 km/h 12.9 km/h 86 % 0.0 mm
01:37 15.7 °C 13.2 °C 1000.6 hPa SSE 6.4 km/h 16.1 km/h 85 % 0.0 mm
01:42 15.7 °C 13.2 °C 1000.6 hPa SSW 6.4 km/h 16.1 km/h 85 % 0.0 mm
01:47 15.7 °C 13.2 °C 1000.2 hPa SSW 6.4 km/h 19.3 km/h 85 % 0.0 mm
01:52 15.6 °C 13.1 °C 1000.2 hPa SSW 3.2 km/h 19.3 km/h 85 % 0.0 mm
01:57 15.3 °C 13.0 °C 1000.2 hPa SW 4.8 km/h 19.3 km/h 86 % 0.0 mm
02:02 15.1 °C 13.0 °C 1000.2 hPa SSW 4.8 km/h 16.1 km/h 87 % 0.0 mm
02:07 14.9 °C 12.9 °C 1000.2 hPa SSW 3.2 km/h 9.7 km/h 88 % 0.0 mm
02:12 14.8 °C 12.8 °C 1000.2 hPa SW 3.2 km/h 9.7 km/h 88 % 0.0 mm
02:17 14.6 °C 12.8 °C 1000.2 hPa SW 4.8 km/h 6.4 km/h 89 % 0.0 mm
02:22 14.5 °C 12.9 °C 999.9 hPa SSW 4.8 km/h 6.4 km/h 90 % 0.0 mm
02:32 14.4 °C 12.8 °C 999.9 hPa SSW 4.8 km/h 11.3 km/h 90 % 0.0 mm
02:42 14.4 °C 12.8 °C 999.9 hPa SW 4.8 km/h 11.3 km/h 90 % 0.0 mm
02:52 14.2 °C 12.6 °C 999.9 hPa SW 9.7 km/h 9.7 km/h 90 % 0.0 mm
02:57 14.1 °C 12.7 °C 999.9 hPa SW 8.0 km/h 9.7 km/h 91 % 0.0 mm
03:02 13.9 °C 12.5 °C 999.9 hPa SW 4.8 km/h 11.3 km/h 91 % 0.0 mm
03:07 14.0 °C 12.7 °C 999.9 hPa SSW 9.7 km/h 11.3 km/h 92 % 0.0 mm
03:12 14.1 °C 12.8 °C 999.9 hPa WSW 6.4 km/h 11.3 km/h 92 % 0.0 mm
03:17 14.2 °C 12.8 °C 999.9 hPa SSW 12.9 km/h 17.7 km/h 91 % 0.0 mm
03:22 14.2 °C 12.8 °C 999.9 hPa SW 9.7 km/h 17.7 km/h 91 % 0.0 mm
03:32 14.1 °C 12.7 °C 999.5 hPa West 3.2 km/h 16.1 km/h 91 % 0.0 mm
03:42 14.1 °C 12.8 °C 999.5 hPa SW 4.8 km/h 11.3 km/h 92 % 0.0 mm
03:47 14.3 °C 13.0 °C 999.5 hPa SSW 4.8 km/h 11.3 km/h 92 % 0.0 mm
03:52 14.4 °C 13.1 °C 999.5 hPa South 6.4 km/h 11.3 km/h 92 % 0.0 mm
03:57 14.6 °C 13.1 °C 999.5 hPa SW 9.7 km/h 14.5 km/h 91 % 0.0 mm
04:02 14.7 °C 13.2 °C 999.5 hPa SW 9.7 km/h 14.5 km/h 91 % 0.0 mm
04:12 14.6 °C 13.3 °C 999.5 hPa SSW 11.3 km/h 14.5 km/h 92 % 0.0 mm
04:17 14.5 °C 13.2 °C 999.9 hPa SW 6.4 km/h 16.1 km/h 92 % 0.3 mm
04:22 14.4 °C 13.3 °C 999.5 hPa SSW 1.6 km/h 16.1 km/h 93 % 0.3 mm
04:27 14.4 °C 13.3 °C 999.5 hPa SW 3.2 km/h 16.1 km/h 93 % 0.3 mm
04:32 14.3 °C 13.2 °C 999.5 hPa SSW 4.8 km/h 14.5 km/h 93 % 0.3 mm
04:42 14.1 °C 13.0 °C 999.9 hPa SW 8.0 km/h 12.9 km/h 93 % 0.3 mm
04:47 14.1 °C 13.1 °C 999.9 hPa SSW 3.2 km/h 12.9 km/h 94 % 0.3 mm
04:52 14.1 °C 13.1 °C 999.9 hPa SSW 3.2 km/h 11.3 km/h 94 % 0.3 mm
04:57 14.1 °C 13.1 °C 999.9 hPa SSW 3.2 km/h 11.3 km/h 94 % 0.3 mm
05:02 14.1 °C 13.1 °C 999.9 hPa SW 3.2 km/h 8.0 km/h 94 % 0.3 mm
05:12 13.9 °C 12.9 °C 999.9 hPa SW 1.6 km/h 8.0 km/h 94 % 0.3 mm
05:17 13.9 °C 12.9 °C 999.9 hPa Calm   8.0 km/h 94 % 0.3 mm
05:22 13.8 °C 12.9 °C 999.9 hPa Calm   6.4 km/h 94 % 0.0 mm
05:27 13.7 °C 12.8 °C 999.9 hPa Calm   6.4 km/h 94 % 0.0 mm
05:32 13.6 °C 12.7 °C 999.9 hPa SW 1.6 km/h 3.2 km/h 94 % 0.0 mm
05:37 13.5 °C 12.6 °C 999.9 hPa WSW 1.6 km/h 3.2 km/h 94 % 0.0 mm
05:42 13.4 °C 12.5 °C 999.9 hPa SSW 3.2 km/h 3.2 km/h 94 % 0.0 mm
05:47 13.5 °C 12.6 °C 999.9 hPa SSW 3.2 km/h 3.2 km/h 94 % 0.0 mm
05:52 13.5 °C 12.7 °C 999.9 hPa SW 3.2 km/h 6.4 km/h 95 % 0.0 mm
05:57 13.6 °C 12.8 °C 999.9 hPa SW 6.4 km/h 6.4 km/h 95 % 0.0 mm
06:02 13.7 °C 12.9 °C 999.9 hPa SW 3.2 km/h 9.7 km/h 95 % 0.0 mm
06:07 13.8 °C 13.0 °C 999.9 hPa SSW 3.2 km/h 9.7 km/h 95 % 0.0 mm
06:12 13.9 °C 12.9 °C 999.9 hPa SSW 3.2 km/h 9.7 km/h 94 % 0.0 mm
06:17 14.0 °C 13.0 °C 1000.2 hPa SW 3.2 km/h 9.7 km/h 94 % 0.0 mm
06:22 14.1 °C 13.1 °C 1000.2 hPa SW 1.6 km/h 8.0 km/h 94 % 0.0 mm
06:32 14.2 °C 13.2 °C 1000.2 hPa South 3.2 km/h 8.0 km/h 94 % 0.0 mm
06:37 14.2 °C 13.2 °C 1000.2 hPa South 1.6 km/h 6.4 km/h 94 % 0.0 mm
06:42 14.2 °C 13.2 °C 1000.2 hPa WSW 8.0 km/h 8.0 km/h 94 % 0.0 mm
06:47 14.3 °C 13.3 °C 1000.2 hPa WSW 8.0 km/h 8.0 km/h 94 % 0.0 mm
06:52 14.3 °C 13.3 °C 1000.2 hPa SSW 3.2 km/h 9.7 km/h 94 % 0.0 mm
07:02 14.4 °C 13.4 °C 1000.6 hPa WNW 8.0 km/h 9.7 km/h 94 % 0.0 mm
07:12 14.5 °C 13.5 °C 1000.6 hPa West 4.8 km/h 14.5 km/h 94 % 0.0 mm
07:17 14.5 °C 13.5 °C 1000.6 hPa West 3.2 km/h 14.5 km/h 94 % 0.0 mm
07:22 14.6 °C 13.6 °C 1000.6 hPa WSW 3.2 km/h 14.5 km/h 94 % 0.0 mm
07:32 14.6 °C 13.5 °C 1000.6 hPa West 3.2 km/h 9.7 km/h 93 % 0.0 mm
07:37 14.7 °C 13.6 °C 1000.9 hPa WNW 8.0 km/h 9.7 km/h 93 % 0.0 mm
07:42 14.7 °C 13.2 °C 1000.9 hPa WNW 8.0 km/h 12.9 km/h 91 % 0.0 mm
07:47 14.7 °C 13.1 °C 1000.9 hPa West 6.4 km/h 12.9 km/h 90 % 0.0 mm
07:52 14.7 °C 13.1 °C 1000.9 hPa WNW 8.0 km/h 17.7 km/h 90 % 0.0 mm
07:57 14.7 °C 13.1 °C 1000.9 hPa West 6.4 km/h 17.7 km/h 90 % 0.0 mm
08:02 14.7 °C 13.1 °C 1000.9 hPa West 8.0 km/h 17.7 km/h 90 % 0.0 mm
08:12 14.7 °C 12.7 °C 1001.2 hPa NW 12.9 km/h 20.9 km/h 88 % 0.0 mm
08:17 14.8 °C 13.0 °C 1001.2 hPa WSW 6.4 km/h 20.9 km/h 89 % 0.0 mm
08:27 14.6 °C 12.5 °C 1001.2 hPa West 6.4 km/h 20.9 km/h 87 % 0.0 mm
08:32 14.6 °C 12.3 °C 1001.2 hPa West 12.9 km/h 17.7 km/h 86 % 0.0 mm
08:37 14.6 °C 11.9 °C 1001.2 hPa West 3.2 km/h 17.7 km/h 84 % 0.0 mm
08:42 14.6 °C 11.9 °C 1001.2 hPa WNW 6.4 km/h 16.1 km/h 84 % 0.0 mm
08:47 14.6 °C 12.1 °C 1001.2 hPa West 3.2 km/h 16.1 km/h 85 % 0.0 mm
08:52 14.6 °C 12.1 °C 1001.2 hPa SSW 1.6 km/h 20.9 km/h 85 % 0.0 mm
08:57 14.6 °C 12.1 °C 1001.6 hPa West 8.0 km/h 20.9 km/h 85 % 0.0 mm
09:02 14.6 °C 12.3 °C 1001.6 hPa WSW 4.8 km/h 12.9 km/h 86 % 0.0 mm
09:12 14.4 °C 12.1 °C 1001.6 hPa West 3.2 km/h 17.7 km/h 86 % 0.0 mm
09:17 14.5 °C 12.2 °C 1001.6 hPa WSW 6.4 km/h 17.7 km/h 86 % 0.0 mm
09:22 14.6 °C 12.3 °C 1001.6 hPa West 12.9 km/h 17.7 km/h 86 % 0.0 mm
09:32 15.2 °C 12.7 °C 1001.9 hPa WSW 9.7 km/h 14.5 km/h 85 % 0.0 mm
09:37 15.5 °C 12.8 °C 1001.9 hPa WSW 9.7 km/h 14.5 km/h 84 % 0.0 mm
09:42 15.7 °C 12.1 °C 1001.9 hPa WSW 6.4 km/h 19.3 km/h 79 % 0.0 mm
09:47 15.9 °C 12.6 °C 1001.6 hPa SW 14.5 km/h 19.3 km/h 81 % 0.0 mm
09:52 16.2 °C 12.6 °C 1001.6 hPa West 4.8 km/h 22.5 km/h 79 % 0.0 mm
09:57 16.4 °C 11.5 °C 1001.9 hPa SW 11.3 km/h 22.5 km/h 73 % 0.0 mm
10:02 16.2 °C 11.6 °C 1001.9 hPa WSW 20.9 km/h 20.9 km/h 74 % 0.0 mm
10:07 16.1 °C 11.3 °C 1001.9 hPa SW 6.4 km/h 20.9 km/h 73 % 0.0 mm
10:12 16.3 °C 11.7 °C 1001.9 hPa WNW 20.9 km/h 27.4 km/h 74 % 0.0 mm
10:17 16.4 °C 12.0 °C 1001.9 hPa SW 14.5 km/h 27.4 km/h 75 % 0.0 mm
10:22 16.5 °C 11.6 °C 1001.9 hPa WNW 3.2 km/h 30.6 km/h 73 % 0.3 mm
10:32 16.6 °C 11.5 °C 1002.3 hPa West 14.5 km/h 27.4 km/h 72 % 0.3 mm
10:37 16.8 °C 11.3 °C 1002.3 hPa West 17.7 km/h 27.4 km/h 70 % 0.3 mm
10:42 16.9 °C 11.4 °C 1002.3 hPa West 11.3 km/h 29.0 km/h 70 % 0.3 mm
10:52 17.1 °C 12.0 °C 1002.3 hPa SW 12.9 km/h 29.0 km/h 72 % 0.3 mm
10:57 17.0 °C 11.9 °C 1002.3 hPa WSW 12.9 km/h 29.0 km/h 72 % 0.3 mm
11:02 17.1 °C 12.0 °C 1002.3 hPa West 6.4 km/h 24.1 km/h 72 % 0.3 mm
11:12 16.7 °C 11.8 °C 1002.3 hPa West 14.5 km/h 19.3 km/h 73 % 0.3 mm
11:17 16.8 °C 11.9 °C 1002.3 hPa WSW 6.4 km/h 19.3 km/h 73 % 0.3 mm
11:22 16.9 °C 12.0 °C 1002.3 hPa WSW 11.3 km/h 25.7 km/h 73 % 0.0 mm
11:27 17.1 °C 12.0 °C 1002.3 hPa West 11.3 km/h 25.7 km/h 72 % 0.0 mm
11:32 17.1 °C 12.0 °C 1001.9 hPa West 14.5 km/h 19.3 km/h 72 % 0.0 mm
11:42 17.1 °C 12.2 °C 1001.9 hPa SW 8.0 km/h 20.9 km/h 73 % 0.0 mm
11:47 17.4 °C 12.5 °C 1001.9 hPa West 4.8 km/h 20.9 km/h 73 % 0.0 mm
11:52 17.4 °C 11.9 °C 1002.3 hPa West 12.9 km/h 19.3 km/h 70 % 0.0 mm
11:57 17.2 °C 11.9 °C 1001.9 hPa West 12.9 km/h 19.3 km/h 71 % 0.0 mm
12:02 17.1 °C 11.8 °C 1002.3 hPa SW 11.3 km/h 27.4 km/h 71 % 0.0 mm
12:07 17.1 °C 11.8 °C 1002.3 hPa West 12.9 km/h 27.4 km/h 71 % 0.0 mm
12:12 17.2 °C 12.5 °C 1002.3 hPa SSW 12.9 km/h 30.6 km/h 74 % 0.0 mm
12:17 17.5 °C 13.2 °C 1002.3 hPa SSW 12.9 km/h 30.6 km/h 76 % 0.0 mm
12:22 17.6 °C 12.9 °C 1002.3 hPa SW 16.1 km/h 30.6 km/h 74 % 0.0 mm
12:32 17.7 °C 12.4 °C 1002.3 hPa WNW 11.3 km/h 30.6 km/h 71 % 0.0 mm
12:37 17.7 °C 12.4 °C 1002.3 hPa WSW 12.9 km/h 32.2 km/h 71 % 0.0 mm
12:42 17.7 °C 11.9 °C 1002.3 hPa WSW 17.7 km/h 32.2 km/h 69 % 0.0 mm
12:47 18.4 °C 12.6 °C 1002.3 hPa WSW 27.4 km/h 32.2 km/h 69 % 0.0 mm
12:52 17.9 °C 11.9 °C 1002.3 hPa WSW 25.7 km/h 32.2 km/h 68 % 0.0 mm
12:57 16.9 °C 12.6 °C 1002.3 hPa WSW 6.4 km/h 32.2 km/h 76 % 0.0 mm
13:02 16.6 °C 12.7 °C 1002.3 hPa West 8.0 km/h 32.2 km/h 78 % 0.0 mm
13:12 17.3 °C 13.2 °C 1002.3 hPa WSW 12.9 km/h 29.0 km/h 77 % 0.0 mm
13:17 17.5 °C 12.6 °C 1002.3 hPa SW 12.9 km/h 29.0 km/h 73 % 0.0 mm
13:22 16.3 °C 12.5 °C 1002.9 hPa WSW 24.1 km/h 38.6 km/h 78 % 0.0 mm
13:27 14.8 °C 12.1 °C 1002.9 hPa SW 19.3 km/h 38.6 km/h 84 % 0.0 mm
13:37 13.6 °C 11.6 °C 1002.9 hPa WSW 9.7 km/h 40.2 km/h 88 % 2.3 mm
13:47 13.6 °C 12.0 °C 1002.9 hPa SW 12.9 km/h 27.4 km/h 90 % 3.3 mm
13:52 13.8 °C 12.2 °C 1002.9 hPa SW 12.9 km/h 25.7 km/h 90 % 3.3 mm
13:57 14.1 °C 12.5 °C 1002.9 hPa SW 9.7 km/h 25.7 km/h 90 % 3.3 mm
14:02 14.4 °C 12.8 °C 1002.9 hPa SW 6.4 km/h 20.9 km/h 90 % 3.3 mm
14:12 15.2 °C 13.6 °C 1002.9 hPa SW 3.2 km/h 14.5 km/h 90 % 3.3 mm
14:17 16.0 °C 14.5 °C 1002.9 hPa WNW 3.2 km/h 14.5 km/h 91 % 3.3 mm
14:22 15.9 °C 13.6 °C 1002.9 hPa WSW 4.8 km/h 12.9 km/h 86 % 3.3 mm
14:32 16.5 °C 14.5 °C 1002.9 hPa WNW 9.7 km/h 11.3 km/h 88 % 1.0 mm
14:42 17.1 °C 13.8 °C 1002.9 hPa West 8.0 km/h 12.9 km/h 81 % 0.3 mm
14:52 17.6 °C 13.1 °C 1002.6 hPa South 17.7 km/h 19.3 km/h 75 % 0.0 mm
14:57 18.0 °C 13.5 °C 1002.6 hPa SW 22.5 km/h 25.7 km/h 75 % 0.0 mm
15:02 18.3 °C 13.6 °C 1002.9 hPa West 6.4 km/h 25.7 km/h 74 % 0.0 mm
15:12 17.7 °C 13.6 °C 1002.9 hPa West 11.3 km/h 27.4 km/h 77 % 0.3 mm
15:17 17.7 °C 13.8 °C 1002.9 hPa SW 8.0 km/h 27.4 km/h 78 % 0.3 mm
15:22 17.8 °C 13.9 °C 1002.6 hPa SW 11.3 km/h 27.4 km/h 78 % 0.3 mm
15:32 18.0 °C 12.7 °C 1002.6 hPa SW 17.7 km/h 19.3 km/h 71 % 0.3 mm
15:42 18.5 °C 12.7 °C 1002.6 hPa SSW 14.5 km/h 27.4 km/h 69 % 0.3 mm
15:47 18.6 °C 12.4 °C 1002.6 hPa SW 12.9 km/h 33.8 km/h 67 % 0.3 mm
15:52 18.9 °C 12.2 °C 1002.6 hPa SW 11.3 km/h 33.8 km/h 65 % 0.3 mm
15:57 19.4 °C 11.9 °C 1002.6 hPa SW 19.3 km/h 33.8 km/h 62 % 0.3 mm
16:07 19.6 °C 11.4 °C 1002.6 hPa SSW 22.5 km/h 38.6 km/h 59 % 0.0 mm
16:12 19.6 °C 11.9 °C 1002.3 hPa WSW 19.3 km/h 38.6 km/h 61 % 0.0 mm
16:17 20.1 °C 12.3 °C 1002.3 hPa WSW 24.1 km/h 35.4 km/h 61 % 0.0 mm
16:37 19.7 °C 10.9 °C 1002.3 hPa West 4.8 km/h 38.6 km/h 57 % 0.0 mm
16:42 19.4 °C 10.9 °C 1002.3 hPa South 17.7 km/h 38.6 km/h 58 % 0.0 mm
16:52 17.8 °C 12.5 °C 1002.6 hPa West 16.1 km/h 41.8 km/h 71 % 0.0 mm
17:02 16.9 °C 12.6 °C 1002.9 hPa SW 17.7 km/h 35.4 km/h 76 % 0.0 mm
17:12 17.4 °C 13.1 °C 1002.6 hPa West 8.0 km/h 24.1 km/h 76 % 0.3 mm
17:17 17.8 °C 12.9 °C 1002.6 hPa SW 12.9 km/h 22.5 km/h 73 % 0.3 mm
17:22 18.0 °C 12.4 °C 1002.6 hPa WSW 9.7 km/h 22.5 km/h 70 % 0.3 mm
17:32 17.9 °C 12.8 °C 1002.9 hPa WSW 11.3 km/h 24.1 km/h 72 % 0.3 mm
17:42 16.6 °C 12.4 °C 1002.9 hPa WSW 8.0 km/h 24.1 km/h 76 % 0.3 mm
17:47 16.7 °C 13.0 °C 1002.9 hPa WSW 12.9 km/h 43.4 km/h 79 % 1.0 mm
17:57 17.2 °C 13.3 °C 1002.9 hPa SW 4.8 km/h 33.8 km/h 78 % 1.0 mm
18:02 17.6 °C 13.7 °C 1002.9 hPa West 8.0 km/h 27.4 km/h 78 % 1.0 mm
18:12 17.4 °C 13.3 °C 1002.9 hPa WSW 11.3 km/h 27.4 km/h 77 % 0.8 mm
18:17 17.1 °C 12.8 °C 1003.3 hPa SW 20.9 km/h 20.9 km/h 76 % 0.8 mm
18:22 16.7 °C 13.0 °C 1002.9 hPa WSW 16.1 km/h 20.9 km/h 79 % 0.8 mm
18:27 16.3 °C 12.8 °C 1002.9 hPa SW 11.3 km/h 25.7 km/h 80 % 1.5 mm
18:32 16.5 °C 13.4 °C 1002.9 hPa SW 14.5 km/h 25.7 km/h 82 % 1.5 mm
18:37 16.7 °C 13.2 °C 1002.9 hPa SW 14.5 km/h 24.1 km/h 80 % 1.3 mm
18:42 16.7 °C 13.0 °C 1003.3 hPa SW 16.1 km/h 24.1 km/h 79 % 1.3 mm
18:52 17.4 °C 13.1 °C 1003.3 hPa SW 17.7 km/h 22.5 km/h 76 % 0.8 mm
18:57 17.7 °C 12.8 °C 1003.3 hPa WSW 24.1 km/h 30.6 km/h 73 % 0.8 mm
19:02 17.6 °C 12.5 °C 1003.3 hPa SW 16.1 km/h 30.6 km/h 72 % 0.8 mm
19:12 16.9 °C 12.8 °C 1003.3 hPa South 12.9 km/h 37.0 km/h 77 % 0.8 mm
19:17 16.6 °C 12.7 °C 1003.6 hPa WSW 11.3 km/h 37.0 km/h 78 % 0.0 mm
19:22 16.5 °C 12.5 °C 1003.6 hPa SW 12.9 km/h 37.0 km/h 77 % 0.0 mm
19:27 16.5 °C 12.7 °C 1003.6 hPa South 8.0 km/h 27.4 km/h 78 % 0.0 mm
19:32 16.4 °C 12.6 °C 1003.6 hPa SW 11.3 km/h 27.4 km/h 78 % 0.0 mm
19:37 16.6 °C 12.6 °C 1003.6 hPa West 17.7 km/h 27.4 km/h 77 % 0.0 mm
19:42 16.6 °C 12.6 °C 1003.9 hPa SW 30.6 km/h 30.6 km/h 77 % 0.0 mm
19:47 16.0 °C 11.8 °C 1003.9 hPa South 11.3 km/h 45.1 km/h 76 % 0.0 mm
19:52 15.6 °C 11.8 °C 1003.9 hPa WSW 20.9 km/h 45.1 km/h 78 % 0.0 mm
19:57 15.4 °C 11.8 °C 1003.9 hPa SW 9.7 km/h 45.1 km/h 79 % 0.0 mm
20:02 15.6 °C 11.8 °C 1004.3 hPa SW 14.5 km/h 45.1 km/h 78 % 0.0 mm
20:12 15.8 °C 12.0 °C 1004.3 hPa West 9.7 km/h 29.0 km/h 78 % 0.0 mm
20:17 15.9 °C 12.3 °C 1004.3 hPa WSW 8.0 km/h 24.1 km/h 79 % 0.0 mm
20:22 16.0 °C 12.4 °C 1004.3 hPa WSW 12.9 km/h 29.0 km/h 79 % 0.3 mm
20:27 15.9 °C 12.3 °C 1004.3 hPa SSW 9.7 km/h 29.0 km/h 79 % 0.3 mm
20:32 15.7 °C 12.3 °C 1004.3 hPa WSW 9.7 km/h 29.0 km/h 80 % 0.3 mm
20:42 15.7 °C 12.3 °C 1004.6 hPa SW 8.0 km/h 25.7 km/h 80 % 0.3 mm
20:47 15.6 °C 12.2 °C 1004.3 hPa West 4.8 km/h 22.5 km/h 80 % 0.3 mm
20:52 15.5 °C 12.3 °C 1004.6 hPa SW 6.4 km/h 22.5 km/h 81 % 0.3 mm
20:57 15.5 °C 12.3 °C 1004.6 hPa WSW 8.0 km/h 22.5 km/h 81 % 0.3 mm
21:02 15.4 °C 12.3 °C 1004.6 hPa SSW 8.0 km/h 20.9 km/h 82 % 0.3 mm
21:12 15.1 °C 12.4 °C 1004.6 hPa SSW 6.4 km/h 20.9 km/h 84 % 0.3 mm
21:17 14.8 °C 12.3 °C 1004.6 hPa SW 4.8 km/h 19.3 km/h 85 % 0.3 mm
21:22 14.7 °C 12.4 °C 1005.0 hPa SSW 3.2 km/h 16.1 km/h 86 % 0.0 mm
21:32 14.4 °C 12.4 °C 1005.0 hPa SW 3.2 km/h 16.1 km/h 88 % 0.0 mm
21:42 14.3 °C 12.5 °C 1005.0 hPa SSW 3.2 km/h 9.7 km/h 89 % 0.0 mm
21:47 14.3 °C 12.5 °C 1005.0 hPa South 3.2 km/h 8.0 km/h 89 % 0.0 mm
21:52 14.3 °C 12.5 °C 1005.3 hPa SSW 6.4 km/h 8.0 km/h 89 % 0.0 mm
21:57 14.3 °C 12.2 °C 1005.3 hPa SSW 4.8 km/h 11.3 km/h 87 % 0.0 mm
22:02 14.4 °C 12.1 °C 1005.3 hPa SSW 4.8 km/h 14.5 km/h 86 % 0.0 mm
22:12 14.6 °C 11.7 °C 1005.3 hPa SSW 9.7 km/h 14.5 km/h 83 % 0.0 mm
22:17 14.6 °C 11.7 °C 1005.3 hPa SSW 6.4 km/h 16.1 km/h 83 % 0.0 mm
22:22 14.6 °C 11.7 °C 1005.6 hPa SSW 9.7 km/h 16.1 km/h 83 % 0.0 mm
22:32 14.6 °C 11.7 °C 1005.6 hPa SSW 6.4 km/h 17.7 km/h 83 % 0.0 mm
22:37 14.6 °C 11.7 °C 1005.6 hPa SW 8.0 km/h 17.7 km/h 83 % 0.0 mm
22:42 14.5 °C 11.8 °C 1005.6 hPa SW 11.3 km/h 17.7 km/h 84 % 0.0 mm
22:47 14.6 °C 11.7 °C 1005.6 hPa SSW 11.3 km/h 16.1 km/h 83 % 0.0 mm
22:52 14.6 °C 11.7 °C 1005.6 hPa SW 11.3 km/h 16.1 km/h 83 % 0.0 mm
22:57 14.6 °C 11.7 °C 1005.6 hPa SW 12.9 km/h 17.7 km/h 83 % 0.0 mm
23:02 14.6 °C 11.7 °C 1005.6 hPa SW 6.4 km/h 17.7 km/h 83 % 0.0 mm
23:12 14.2 °C 11.4 °C 1005.6 hPa SSW 6.4 km/h 17.7 km/h 83 % 0.0 mm
23:17 14.2 °C 11.4 °C 1005.6 hPa SW 8.0 km/h 16.1 km/h 83 % 0.0 mm
23:22 14.1 °C 11.4 °C 1005.6 hPa SSW 6.4 km/h 17.7 km/h 84 % 0.0 mm
23:32 14.0 °C 11.3 °C 1006.0 hPa SW 9.7 km/h 17.7 km/h 84 % 0.0 mm
23:42 14.3 °C 11.5 °C 1006.0 hPa SW 12.9 km/h 16.1 km/h 83 % 0.0 mm
23:52 14.4 °C 11.4 °C 1006.0 hPa South 8.0 km/h 27.4 km/h 82 % 0.0 mm
23:57 14.3 °C 11.5 °C 1006.0 hPa SSW 11.3 km/h 27.4 km/h 83 % 0.0 mm
Meteo18
Compliments of Weather Underground - 4 mb

Script developed by  Jim McMurry - jmcmurry@mwt.net Adapted for the template by  Wim van der Kuil - Leuven-Template.eu

You find our weather info also at:

European Weather Network

Weather Underground

Equipment we use:

Weather-station
Davis Vue

Weather-program
Meteohub

Weather-server
Raspberry PI 2 B+

Provider
1 and 1

Davis Vue

Meteohub

Raspberry PI 2 B+

1 and 1